createdAt,value
2019-04-05T00:05:56.330Z,24.70
2019-04-05T00:10:59.770Z,21.60
2019-04-05T00:16:03.313Z,24.23
2019-04-05T00:21:06.801Z,26.27
2019-04-05T00:26:10.246Z,25.03
2019-04-05T00:31:13.702Z,23.83
2019-04-05T00:36:17.211Z,23.37
2019-04-05T00:41:21.329Z,25.83
2019-04-05T00:46:24.718Z,25.20
2019-04-05T00:51:28.224Z,24.70
2019-04-05T00:56:31.682Z,26.00
2019-04-05T01:01:35.606Z,24.83
2019-04-05T01:06:39.193Z,21.87
2019-04-05T01:11:42.730Z,23.20
2019-04-05T01:16:46.211Z,27.83
2019-04-05T01:21:49.735Z,27.40
2019-04-05T01:26:55.400Z,27.27
2019-04-05T01:31:58.847Z,22.93
2019-04-05T01:37:02.441Z,27.33
2019-04-05T01:42:06.963Z,27.83
2019-04-05T01:47:10.478Z,30.00
2019-04-05T01:52:14.120Z,29.87
2019-04-05T01:57:17.579Z,27.10
2019-04-05T02:02:21.035Z,27.10
2019-04-05T02:07:24.642Z,28.57
2019-04-05T02:12:28.196Z,26.63
2019-04-05T02:17:31.675Z,25.43
2019-04-05T02:22:35.213Z,27.03
2019-04-05T02:27:38.682Z,30.73
2019-04-05T02:32:42.224Z,28.10
2019-04-05T02:37:45.834Z,30.97
2019-04-05T02:42:52.649Z,32.03
2019-04-05T02:47:59.161Z,33.90
2019-04-05T02:53:05.654Z,28.53
2019-04-05T02:58:10.721Z,28.20
2019-04-05T03:03:15.483Z,28.23
2019-04-05T03:08:19.246Z,29.63
2019-04-05T03:13:46.478Z,34.90
2019-04-05T03:18:52.936Z,29.83
2019-04-05T03:23:59.424Z,29.20
2019-04-05T03:29:05.914Z,32.83
2019-04-05T03:34:09.629Z,31.07
2019-04-05T03:39:13.483Z,33.30
2019-04-05T03:44:16.957Z,32.83
2019-04-05T03:49:20.602Z,33.43
2019-04-05T03:54:24.040Z,30.37
2019-04-05T03:59:27.621Z,32.27
2019-04-05T04:04:31.396Z,32.20
2019-04-05T04:09:35.107Z,26.73
2019-04-05T04:14:39.266Z,32.27
2019-04-05T04:19:42.770Z,26.70
2019-04-05T04:24:46.768Z,31.90
2019-04-05T04:29:50.334Z,33.30
2019-04-05T04:34:54.612Z,27.23
2019-04-05T04:39:58.202Z,28.27
2019-04-05T04:45:11.811Z,26.10
2019-04-05T04:50:09.512Z,24.77
2019-04-05T04:55:13.117Z,29.40
2019-04-05T05:00:18.537Z,29.23
2019-04-05T05:05:22.837Z,28.23
2019-04-05T05:10:26.713Z,30.50
2019-04-05T05:15:30.593Z,26.73
2019-04-05T05:20:34.356Z,28.23
2019-04-05T05:25:37.848Z,27.77
2019-04-05T05:30:41.343Z,26.80
2019-04-05T05:35:44.883Z,27.13
2019-04-05T05:40:48.312Z,29.80
2019-04-05T05:45:51.873Z,36.33
2019-04-05T05:50:55.660Z,30.27
2019-04-05T05:55:59.085Z,29.80
2019-04-05T06:01:02.524Z,29.23
2019-04-05T06:06:06.006Z,45.90
2019-04-05T06:11:09.437Z,33.40
2019-04-05T06:16:12.920Z,34.40
2019-04-05T06:21:16.347Z,35.57
2019-04-05T06:26:19.789Z,33.07
2019-04-05T06:31:23.227Z,33.17
2019-04-05T06:36:26.658Z,30.40
2019-04-05T06:41:30.091Z,31.90
2019-04-05T06:46:33.523Z,33.40
2019-04-05T06:51:36.972Z,26.80
2019-04-05T06:56:40.395Z,32.70
2019-04-05T07:01:43.818Z,34.77
2019-04-05T07:06:47.296Z,36.03
2019-04-05T07:11:50.718Z,30.47
2019-04-05T07:16:54.249Z,28.27
2019-04-05T07:21:57.752Z,28.23
2019-04-05T07:27:01.333Z,25.27
2019-04-05T07:32:05.317Z,27.10
2019-04-05T07:37:08.739Z,28.57
2019-04-05T07:42:12.168Z,28.50
2019-04-05T07:47:15.600Z,24.20
2019-04-05T07:52:19.036Z,24.53
2019-04-05T07:57:22.459Z,24.03
2019-04-05T08:02:25.971Z,20.77
2019-04-05T08:07:32.460Z,20.73
2019-04-05T08:12:37.420Z,20.97
2019-04-05T08:17:40.855Z,21.97
2019-04-05T08:22:44.269Z,20.03
2019-04-05T08:27:47.684Z,21.63
2019-04-05T08:32:51.103Z,23.17
2019-04-05T08:37:54.559Z,18.93
2019-04-05T08:42:57.989Z,18.70
2019-04-05T08:48:01.565Z,23.00
2019-04-05T08:53:05.373Z,24.37
2019-04-05T08:58:08.793Z,22.73
2019-04-05T09:03:12.268Z,19.67
2019-04-05T09:08:16.002Z,21.47
2019-04-05T09:13:19.437Z,18.57
2019-04-05T09:18:22.867Z,19.33
2019-04-05T09:23:26.304Z,17.97
2019-04-05T09:28:29.769Z,19.30
2019-04-05T09:33:33.216Z,21.20
2019-04-05T09:38:36.655Z,17.63
2019-04-05T09:43:40.173Z,19.13
2019-04-05T09:48:43.610Z,17.90
2019-04-05T09:53:47.063Z,20.27
2019-04-05T09:58:50.468Z,18.60
2019-04-05T10:03:53.925Z,17.67
2019-04-05T10:08:57.341Z,19.53
2019-04-05T10:14:00.776Z,17.87
2019-04-05T10:19:04.626Z,19.93
2019-04-05T10:24:08.037Z,19.87
2019-04-05T10:29:11.465Z,16.80
2019-04-05T10:34:15.440Z,20.87
2019-04-05T10:39:18.877Z,18.20
2019-04-05T10:44:22.311Z,24.00
2019-04-05T10:49:25.823Z,23.57
2019-04-05T10:54:29.292Z,24.00
2019-04-05T10:59:32.807Z,22.67
2019-04-05T11:04:36.250Z,21.97
2019-04-05T11:09:39.748Z,18.43
2019-04-05T11:14:43.489Z,24.73
2019-04-05T11:19:46.929Z,20.90
2019-04-05T11:24:50.390Z,21.20
2019-04-05T11:29:53.844Z,25.20
2019-04-05T11:34:57.292Z,20.47
2019-04-05T11:40:00.830Z,23.20
2019-04-05T11:45:05.698Z,22.07
2019-04-05T11:50:11.393Z,21.83
2019-04-05T11:55:18.222Z,22.33
2019-04-05T12:00:23.400Z,21.13
2019-04-05T12:05:27.374Z,23.50
2019-04-05T12:10:32.131Z,20.87
2019-04-05T12:15:36.436Z,21.23
2019-04-05T12:20:48.324Z,26.17
2019-04-05T12:25:45.149Z,23.90
2019-04-05T12:30:49.468Z,28.80
2019-04-05T12:35:56.318Z,23.10
2019-04-05T12:40:59.019Z,27.83
2019-04-05T12:46:04.898Z,21.97
2019-04-05T12:51:08.811Z,22.57
2019-04-05T12:56:12.265Z,19.53
2019-04-05T13:01:15.784Z,23.50
2019-04-05T13:06:19.892Z,23.53
2019-04-05T13:11:26.686Z,23.40
2019-04-05T13:16:29.596Z,25.83
2019-04-05T13:21:33.301Z,28.47
2019-04-05T13:26:37.155Z,21.93
2019-04-05T13:31:40.762Z,30.53
2019-04-05T13:36:44.209Z,27.30
2019-04-05T13:41:47.656Z,28.13
2019-04-05T13:46:51.073Z,31.40
2019-04-05T13:51:54.514Z,27.47
2019-04-05T13:56:58.185Z,30.47
2019-04-05T14:02:06.283Z,30.20
2019-04-05T14:07:07.219Z,26.73
2019-04-05T14:12:10.665Z,22.03
2019-04-05T14:17:14.363Z,23.67
2019-04-05T14:22:17.867Z,20.97
2019-04-05T14:27:21.326Z,25.27
2019-04-05T14:32:24.776Z,21.77
2019-04-05T14:37:28.303Z,22.80
2019-04-05T14:42:31.732Z,21.57
2019-04-05T14:47:35.204Z,25.53
2019-04-05T14:52:38.908Z,27.07
2019-04-05T14:57:42.331Z,22.50
2019-04-05T15:02:45.776Z,22.77
2019-04-05T15:07:51.054Z,20.30
2019-04-05T15:12:54.391Z,20.40
2019-04-05T15:17:57.912Z,21.73
2019-04-05T15:23:01.430Z,15.37
2019-04-05T15:28:04.870Z,20.43
2019-04-05T15:33:08.373Z,17.47
2019-04-05T15:38:11.895Z,18.03
2019-04-05T15:43:15.335Z,16.67
2019-04-05T15:48:20.492Z,14.17
2019-04-05T15:53:23.937Z,15.37
2019-04-05T15:58:27.383Z,16.43
2019-04-05T16:03:32.289Z,14.57
2019-04-05T16:08:36.131Z,15.17
2019-04-05T16:13:39.571Z,14.60
2019-04-05T16:18:43.893Z,14.40
2019-04-05T16:23:47.383Z,13.63
2019-04-05T16:28:50.823Z,17.10
2019-04-05T16:33:54.237Z,16.27
2019-04-05T16:38:57.782Z,13.53
2019-04-05T16:44:01.209Z,18.77
2019-04-05T16:49:04.676Z,15.57
2019-04-05T16:54:08.163Z,13.17
2019-04-05T16:59:11.657Z,15.23
2019-04-05T17:04:15.967Z,14.13
2019-04-05T17:09:19.423Z,18.17
2019-04-05T17:14:23.374Z,15.50
2019-04-05T17:19:26.837Z,19.80
2019-04-05T17:24:30.278Z,18.43
2019-04-05T17:29:33.693Z,18.17
2019-04-05T17:34:37.108Z,14.77
2019-04-05T17:39:40.557Z,17.50
2019-04-05T17:44:44.016Z,18.97
2019-04-05T17:49:47.768Z,21.00
2019-04-05T17:54:51.264Z,20.23
2019-04-05T17:59:54.862Z,21.27
2019-04-05T18:04:58.842Z,19.10
2019-04-05T18:10:02.272Z,21.23
2019-04-05T18:15:06.363Z,21.40
2019-04-05T18:20:10.266Z,21.43
2019-04-05T18:25:14.369Z,22.67
2019-04-05T18:30:19.156Z,25.00
2019-04-05T18:35:22.597Z,22.57
2019-04-05T18:40:26.036Z,24.80
2019-04-05T18:45:30.160Z,24.47
2019-04-05T18:50:33.596Z,25.93
2019-04-05T18:55:37.149Z,25.40
2019-04-05T19:00:40.593Z,25.20
2019-04-05T19:05:44.023Z,22.03
2019-04-05T19:10:47.485Z,28.43
2019-04-05T19:15:50.933Z,22.27
2019-04-05T19:20:54.402Z,23.60
2019-04-05T19:25:57.848Z,27.67
2019-04-05T19:51:22.120Z,26.80
2019-04-05T19:56:25.562Z,37.03
2019-04-05T20:01:29.033Z,29.73
2019-04-05T20:06:32.499Z,28.87
2019-04-05T20:11:35.924Z,34.37
2019-04-05T20:16:39.361Z,34.70
2019-04-05T20:21:42.799Z,27.50
2019-04-05T20:26:46.280Z,29.20
2019-04-05T20:31:49.983Z,30.90
2019-04-05T20:36:53.750Z,37.70
2019-04-05T20:41:57.189Z,25.60
2019-04-05T20:47:00.677Z,39.20
2019-04-05T20:52:04.403Z,32.07
2019-04-05T20:57:07.816Z,47.00
2019-04-05T21:02:11.250Z,33.13
2019-04-05T21:07:14.670Z,45.13
2019-04-05T21:12:18.092Z,48.13
2019-04-05T21:17:21.528Z,48.53
2019-04-05T21:22:24.992Z,49.07
2019-04-05T21:27:28.454Z,64.17
2019-04-05T21:32:31.990Z,48.17
2019-04-05T21:37:35.480Z,46.50
2019-04-05T21:42:38.913Z,54.20
2019-04-05T21:47:42.369Z,68.83
2019-04-05T21:52:45.824Z,47.20
2019-04-05T21:57:49.316Z,46.57
2019-04-05T22:02:52.786Z,52.40
2019-04-05T22:07:56.251Z,52.10
2019-04-05T22:13:04.648Z,45.57
2019-04-05T22:18:08.138Z,62.47
2019-04-05T22:23:12.090Z,57.47
2019-04-05T22:28:15.538Z,55.70
2019-04-05T22:33:19.015Z,49.10
2019-04-05T22:38:22.494Z,57.30
2019-04-05T22:43:25.962Z,55.67
2019-04-05T22:48:29.419Z,56.27
2019-04-05T22:53:32.892Z,55.03
2019-04-05T22:58:36.364Z,58.87
2019-04-05T23:03:39.814Z,59.40
2019-04-05T23:08:43.673Z,68.03
2019-04-05T23:13:47.133Z,79.50
2019-04-05T23:18:50.585Z,68.40
2019-04-05T23:23:54.059Z,70.10
2019-04-05T23:28:57.557Z,64.33
2019-04-05T23:34:01.063Z,65.30
2019-04-05T23:39:05.606Z,66.37
2019-04-05T23:44:09.119Z,67.90
2019-04-05T23:49:12.580Z,66.43
2019-04-05T23:54:16.046Z,56.77
2019-04-05T23:59:19.538Z,70.03
